Accueil
METAR-TAF:

METAR-TAF

Aéroports :

Aéroport international Mehrabad

Téhéran, Iran

latitude: 35-41N, longitude: 051-21E, altitude: 1204 m

Observation

Le bulletin a été fait il y a 22 minutes, à 10:30 UTC
Vent 6 kt de sud/sud-ouest
Température 6°C
Humidité 36%
Pression 1021 hPa
Visibilité: 6000 m

METAR: OIII 201030Z 21006KT 6000 NSC 06/M08 Q1020 A3014

Heure: 14:22 (10:52 UTC)

Prévision

Le bulletin a été fait il y a 5 heures et 22 minutes, à 05:30 UTC
Prévision valable du 20 à 06 UTC au 21 à 12 UTC
Vent 6 kt de ouest/sud-ouest
Visibilité: 7000 m
Temporairement
du 20 à 06 UTC au 20 à 12 UTC
Visibilité: 4000 m
brume sèche
Evoluant progressivement
du 20 à 20 UTC au 20 à 22 UTC
Visibilité: 4000 m
brume sèche
Evoluant progressivement
du 21 à 03 UTC au 21 à 05 UTC
Visibilité: 7000 m

TAF: OIII 200530Z 2006/2112 24006KT 7000 NSC TEMPO 2006/2012 4000 HZ BECMG 2020/2022 4000 HZ BECMG 2103/2105 7000

Observations et prévisions météorologiques de plus de 4000 aéroports (messages METAR et TAF).

Les stations disponibles sont représentées par des disques jaunes et rouges sur la carte.

Passer la souris dessus pour voir le nom de la station.

Cliquer dessus pour voir les observations et prévisions météorologiques.

Pour changer de carte: cliquez sur les boutons verts avec une croix noire pour zoomer, sur le bouton vert avec un tiret pour effectuer un zoom arrière, ou sur les flèches vertes pour les cartes adjacentes.


METAR-TAF: